Time;durP1;ratioP1;P1;durP2;ratioP2;P2;SDS_P1;SDS_P2;PMS_P1;PMS_P2;Temp;Humidity;BMP_temperature;BMP_pressure;BME280_temperature;BME280_humidity;BME280_pressure;Samples;Min_cycle;Max_cycle;Signal;HPM_P1;HPM_P2
2021/07/09 00:02:16;;;;;;;2.75;2.28;;;16.10;99.90;;;;;;4918521;29;20724;-48
2021/07/09 00:04:45;;;;;;;2.53;2.20;;;16.00;99.90;;;;;;4918455;29;20617;-46
2021/07/09 00:07:13;;;;;;;2.67;2.47;;;16.00;99.90;;;;;;4918262;29;20233;-47
2021/07/09 00:09:41;;;;;;;2.58;2.38;;;16.00;99.90;;;;;;4918520;29;20221;-46
2021/07/09 00:12:09;;;;;;;2.47;2.28;;;16.10;99.90;;;;;;4918461;29;20243;-47
2021/07/09 00:14:37;;;;;;;2.47;2.28;;;16.10;99.90;;;;;;4918473;29;20220;-48
2021/07/09 00:17:06;;;;;;;2.47;2.30;;;16.00;99.90;;;;;;4918273;29;20356;-45
2021/07/09 00:19:34;;;;;;;2.33;2.20;;;16.00;99.90;;;;;;4918111;29;20599;-46
2021/07/09 00:22:04;;;;;;;2.25;2.15;;;16.10;99.90;;;;;;4918081;29;20212;-46
2021/07/09 00:24:32;;;;;;;2.78;2.58;;;16.10;99.90;;;;;;4918280;29;20243;-50
2021/07/09 00:27:03;;;;;;;3.78;2.47;;;16.10;99.90;;;;;;4918241;29;20536;-46
2021/07/09 00:29:31;;;;;;;2.65;2.45;;;16.10;99.90;;;;;;4918211;29;20303;-49
2021/07/09 00:31:59;;;;;;;4.05;2.15;;;16.00;99.90;;;;;;4917949;29;20259;-47
2021/07/09 00:34:27;;;;;;;2.78;2.58;;;16.10;99.90;;;;;;4918033;29;20564;-44
2021/07/09 00:36:58;;;;;;;3.05;2.85;;;16.00;99.90;;;;;;4918131;29;20572;-47
2021/07/09 00:39:27;;;;;;;2.70;2.50;;;16.00;99.90;;;;;;4916961;29;20560;-48
2021/07/09 00:41:55;;;;;;;2.65;2.45;;;16.00;99.90;;;;;;4917904;29;20642;-47
2021/07/09 00:44:23;;;;;;;2.50;2.30;;;16.00;99.90;;;;;;4917899;29;20212;-50
2021/07/09 00:46:52;;;;;;;2.95;2.70;;;16.00;99.90;;;;;;4917569;29;20308;-48
2021/07/09 00:49:21;;;;;;;2.40;2.20;;;16.00;99.90;;;;;;4917905;29;20236;-46
2021/07/09 00:51:50;;;;;;;2.30;2.20;;;16.00;99.90;;;;;;4917570;29;20213;-45
2021/07/09 00:54:18;;;;;;;3.67;1.98;;;16.00;99.90;;;;;;4917546;29;20752;-47
2021/07/09 00:56:48;;;;;;;2.72;2.53;;;16.00;99.90;;;;;;4917576;29;20312;-48
2021/07/09 00:59:21;;;;;;;3.17;2.90;;;16.00;99.90;;;;;;4917492;29;20213;-46
2021/07/09 01:01:50;;;;;;;3.10;2.72;;;16.00;99.90;;;;;;4917641;29;20244;-46
2021/07/09 01:04:18;;;;;;;3.83;2.55;;;15.90;99.90;;;;;;4917422;29;20221;-49
2021/07/09 01:06:46;;;;;;;2.75;2.55;;;15.90;99.90;;;;;;4917578;29;20223;-49
2021/07/09 01:09:15;;;;;;;2.40;2.20;;;15.90;99.90;;;;;;4917359;29;20311;-50
2021/07/09 01:11:45;;;;;;;3.63;3.33;;;15.90;99.90;;;;;;4917253;29;20677;-46
2021/07/09 01:14:14;;;;;;;2.30;2.10;;;15.90;99.90;;;;;;4917104;29;20700;-45
2021/07/09 01:16:42;;;;;;;2.58;2.28;;;15.80;99.90;;;;;;4917190;29;20308;-44
2021/07/09 01:19:15;;;;;;;2.75;2.55;;;15.90;99.90;;;;;;4917024;29;20639;-46
2021/07/09 01:21:44;;;;;;;2.53;2.13;;;15.80;99.90;;;;;;4917237;29;20249;-45
2021/07/09 01:24:14;;;;;;;2.20;2.10;;;15.80;99.90;;;;;;4916978;29;20572;-47
2021/07/09 01:26:43;;;;;;;1.80;1.70;;;15.80;99.90;;;;;;4916903;29;20244;-48
2021/07/09 01:29:12;;;;;;;1.92;1.83;;;15.80;99.90;;;;;;4916881;29;20300;-50
2021/07/09 01:31:40;;;;;;;1.95;1.85;;;15.80;99.90;;;;;;4916882;29;20744;-48
2021/07/09 01:34:08;;;;;;;2.65;2.25;;;15.70;99.90;;;;;;4916826;29;20243;-47
2021/07/09 01:36:36;;;;;;;1.80;1.70;;;15.70;99.90;;;;;;4916740;29;20681;-49
2021/07/09 01:39:05;;;;;;;2.55;2.33;;;15.70;99.90;;;;;;4916891;29;20288;-48
2021/07/09 01:41:34;;;;;;;1.27;1.17;;;15.70;99.90;;;;;;4916690;29;20304;-45
2021/07/09 01:44:04;;;;;;;1.20;1.10;;;15.70;99.90;;;;;;4916741;29;20209;-48
2021/07/09 01:46:31;;;;;;;1.17;1.00;;;15.70;99.90;;;;;;4916531;29;20235;-48
2021/07/09 01:49:00;;;;;;;1.55;1.33;;;15.60;99.90;;;;;;4916138;29;20241;-47
2021/07/09 01:51:27;;;;;;;0.90;0.85;;;15.60;99.90;;;;;;4916374;29;20669;-51
2021/07/09 01:53:55;;;;;;;0.55;0.52;;;15.60;99.90;;;;;;4916642;29;20311;-47
2021/07/09 01:56:23;;;;;;;0.63;0.55;;;15.60;99.90;;;;;;4916397;29;20299;-48
2021/07/09 01:58:53;;;;;;;0.50;0.50;;;15.50;99.90;;;;;;4916455;29;20213;-46
2021/07/09 02:01:22;;;;;;;0.47;0.45;;;15.50;99.90;;;;;;4916464;29;20312;-45
2021/07/09 02:03:49;;;;;;;0.40;0.40;;;15.40;99.90;;;;;;4916088;29;20212;-47
2021/07/09 02:06:17;;;;;;;0.35;0.35;;;15.30;99.90;;;;;;4916488;29;20213;-45
2021/07/09 02:08:45;;;;;;;2.00;0.88;;;15.30;99.90;;;;;;4917258;29;20223;-47
2021/07/09 02:11:13;;;;;;;0.60;0.47;;;15.30;99.90;;;;;;4917040;29;20271;-47
2021/07/09 02:13:42;;;;;;;2.58;0.30;;;15.30;99.90;;;;;;4916717;29;20233;-47
2021/07/09 02:16:11;;;;;;;1.17;0.93;;;15.30;99.90;;;;;;4917269;29;20271;-48
2021/07/09 02:18:39;;;;;;;0.30;0.30;;;15.20;99.90;;;;;;4916223;29;20217;-46
2021/07/09 02:21:07;;;;;;;0.88;0.30;;;15.20;99.90;;;;;;4916178;29;20299;-46
2021/07/09 02:23:35;;;;;;;0.85;0.77;;;15.10;99.90;;;;;;4916824;29;20295;-47
2021/07/09 02:26:03;;;;;;;1.33;0.55;;;15.00;99.90;;;;;;4916329;29;20209;-46
2021/07/09 02:28:31;;;;;;;2.10;0.40;;;15.00;99.90;;;;;;4916012;29;20313;-48
2021/07/09 02:30:59;;;;;;;0.50;0.40;;;15.00;99.90;;;;;;4915927;29;20227;-45
2021/07/09 02:33:28;;;;;;;5.38;0.52;;;15.00;99.90;;;;;;4916083;29;20344;-45
2021/07/09 02:35:56;;;;;;;0.25;0.20;;;14.90;99.90;;;;;;4916044;29;20216;-44
2021/07/09 02:38:24;;;;;;;0.43;0.43;;;14.80;99.90;;;;;;4915972;29;20209;-47
2021/07/09 02:40:52;;;;;;;0.57;0.40;;;14.80;99.90;;;;;;4915751;29;20219;-46
2021/07/09 02:43:20;;;;;;;3.42;0.70;;;14.70;99.90;;;;;;4915792;29;20648;-48
2021/07/09 02:45:48;;;;;;;1.98;1.17;;;14.70;99.90;;;;;;4915681;29;20216;-45
2021/07/09 02:48:17;;;;;;;0.55;0.40;;;14.70;99.90;;;;;;4915708;29;20244;-47
2021/07/09 02:50:47;;;;;;;0.55;0.40;;;14.70;99.90;;;;;;4915872;29;20288;-43
2021/07/09 02:53:15;;;;;;;3.08;0.60;;;14.60;99.90;;;;;;4915755;29;20331;-43
2021/07/09 02:55:43;;;;;;;0.40;0.38;;;14.60;99.90;;;;;;4915923;29;20632;-50
2021/07/09 02:58:12;;;;;;;0.35;0.30;;;14.60;99.90;;;;;;4915739;29;20235;-44
2021/07/09 03:00:40;;;;;;;0.30;0.30;;;14.60;99.90;;;;;;4915904;29;20223;-43
2021/07/09 03:03:08;;;;;;;0.28;0.20;;;14.60;99.90;;;;;;4919626;29;20303;-45
2021/07/09 03:05:36;;;;;;;0.40;0.40;;;14.60;99.90;;;;;;4919724;29;20240;-44
2021/07/09 03:08:06;;;;;;;0.80;0.30;;;14.60;99.90;;;;;;4919503;29;20305;-45
2021/07/09 03:10:34;;;;;;;0.22;0.22;;;14.60;99.90;;;;;;4919431;29;20541;-46
2021/07/09 03:13:02;;;;;;;1.17;0.30;;;14.70;99.90;;;;;;4919719;29;20216;-44
2021/07/09 03:15:30;;;;;;;1.17;0.52;;;14.70;99.90;;;;;;4919304;29;20704;-42
2021/07/09 03:17:57;;;;;;;1.15;0.45;;;14.70;99.90;;;;;;4919555;29;20212;-47
2021/07/09 03:20:25;;;;;;;0.50;0.40;;;14.70;99.90;;;;;;4919404;29;20307;-44
2021/07/09 03:22:53;;;;;;;0.60;0.50;;;14.70;99.90;;;;;;4919234;29;20379;-54
2021/07/09 03:25:23;;;;;;;0.40;0.40;;;14.70;99.90;;;;;;4919274;29;20212;-56
2021/07/09 03:27:51;;;;;;;0.90;0.90;;;14.70;99.90;;;;;;4919396;29;20307;-48
2021/07/09 03:30:19;;;;;;;0.93;0.65;;;14.70;99.90;;;;;;4919300;29;20212;-50
2021/07/09 03:32:47;;;;;;;0.70;0.70;;;14.70;99.90;;;;;;4919184;29;20255;-47
2021/07/09 03:35:15;;;;;;;0.70;0.70;;;14.70;99.90;;;;;;4919145;29;20236;-49
2021/07/09 03:37:44;;;;;;;1.17;0.93;;;14.70;99.90;;;;;;4918908;29;20315;-50
2021/07/09 03:40:12;;;;;;;1.30;0.73;;;14.70;99.90;;;;;;4919244;29;20217;-47
2021/07/09 03:42:41;;;;;;;0.77;0.77;;;14.70;99.90;;;;;;4918922;29;20216;-52
2021/07/09 03:45:10;;;;;;;1.00;0.90;;;14.80;99.90;;;;;;4918995;29;20217;-49
2021/07/09 03:47:38;;;;;;;0.98;0.98;;;14.80;99.90;;;;;;4918707;29;20341;-52
2021/07/09 03:50:07;;;;;;;0.80;0.80;;;14.80;99.90;;;;;;4918707;29;20208;-52
2021/07/09 03:52:35;;;;;;;1.17;1.00;;;14.80;99.90;;;;;;4918995;29;20217;-50
2021/07/09 03:55:04;;;;;;;1.25;1.02;;;14.80;99.90;;;;;;4918785;29;20327;-51
2021/07/09 03:57:32;;;;;;;1.00;0.90;;;14.90;99.90;;;;;;4918579;29;20234;-50
2021/07/09 04:00:01;;;;;;;1.45;1.35;;;14.90;99.90;;;;;;4918707;29;20319;-48
2021/07/09 04:02:29;;;;;;;1.40;1.30;;;14.90;99.90;;;;;;4918202;29;20304;-49
2021/07/09 04:04:57;;;;;;;1.30;1.20;;;14.90;99.90;;;;;;4918253;29;20641;-49
2021/07/09 04:07:25;;;;;;;1.70;1.60;;;14.90;99.90;;;;;;4918041;29;20677;-51
2021/07/09 04:09:55;;;;;;;1.58;1.48;;;14.90;99.90;;;;;;4918336;29;20212;-47
2021/07/09 04:12:22;;;;;;;1.60;1.50;;;14.90;99.90;;;;;;4918355;29;20287;-51
2021/07/09 04:14:50;;;;;;;4.85;1.75;;;14.80;99.90;;;;;;4918162;29;20700;-52
2021/07/09 04:17:20;;;;;;;1.60;1.50;;;14.80;99.90;;;;;;4918038;29;20263;-51
2021/07/09 04:19:49;;;;;;;1.70;1.60;;;14.80;99.90;;;;;;4918427;29;20219;-50
2021/07/09 04:22:17;;;;;;;1.77;1.60;;;14.70;99.90;;;;;;4917842;29;20208;-53
2021/07/09 04:24:45;;;;;;;2.80;1.77;;;14.70;99.90;;;;;;4918047;29;20236;-48
2021/07/09 04:27:13;;;;;;;2.33;1.48;;;14.70;99.90;;;;;;4918131;29;20223;-48
2021/07/09 04:29:41;;;;;;;1.20;1.20;;;14.70;99.90;;;;;;4918160;29;20304;-45
2021/07/09 04:32:09;;;;;;;1.70;1.60;;;14.70;99.90;;;;;;4918368;29;20303;-45
2021/07/09 04:34:39;;;;;;;1.38;1.30;;;14.70;99.90;;;;;;4918308;29;20240;-49
2021/07/09 04:37:08;;;;;;;1.80;1.70;;;14.60;99.90;;;;;;4918379;29;20709;-50
2021/07/09 04:39:37;;;;;;;1.67;1.58;;;14.60;99.90;;;;;;4917993;29;20260;-45
2021/07/09 04:42:05;;;;;;;1.83;1.73;;;14.60;99.90;;;;;;4917952;29;20303;-46
2021/07/09 04:44:34;;;;;;;1.67;1.58;;;14.60;99.90;;;;;;4918199;29;20224;-47
2021/07/09 04:47:01;;;;;;;1.70;1.60;;;14.60;99.90;;;;;;4917956;29;20307;-48
2021/07/09 04:49:30;;;;;;;1.73;1.63;;;14.70;99.90;;;;;;4918011;29;20312;-51
2021/07/09 04:51:59;;;;;;;1.60;1.50;;;14.70;99.90;;;;;;4917911;29;20316;-49
2021/07/09 04:54:27;;;;;;;1.90;1.70;;;14.70;99.90;;;;;;4917850;29;20336;-47
2021/07/09 04:56:56;;;;;;;2.10;1.90;;;14.70;99.90;;;;;;4917689;29;20209;-47
2021/07/09 04:59:24;;;;;;;1.60;1.50;;;14.70;99.90;;;;;;4917763;29;20745;-47
2021/07/09 05:01:53;;;;;;;2.97;2.10;;;14.70;99.90;;;;;;4917609;29;20252;-46
2021/07/09 05:04:21;;;;;;;2.60;2.40;;;14.70;99.90;;;;;;4917604;29;20296;-48
2021/07/09 05:06:49;;;;;;;1.58;1.45;;;14.70;99.90;;;;;;4917495;29;20312;-50
2021/07/09 05:09:18;;;;;;;1.73;1.63;;;14.70;99.90;;;;;;4917311;29;20304;-48
2021/07/09 05:11:47;;;;;;;2.35;1.83;;;14.70;99.90;;;;;;4917373;29;20245;-50
2021/07/09 05:14:15;;;;;;;1.80;1.70;;;14.70;99.90;;;;;;4917340;29;20216;-50
2021/07/09 05:16:43;;;;;;;2.38;2.17;;;14.60;99.90;;;;;;4917273;29;20213;-50
2021/07/09 05:19:11;;;;;;;2.05;1.92;;;14.60;99.90;;;;;;4918103;29;20308;-50
2021/07/09 05:21:39;;;;;;;2.38;2.22;;;14.60;99.90;;;;;;4917324;29;20247;-49
2021/07/09 05:24:09;;;;;;;2.13;2.00;;;14.60;99.90;;;;;;4916608;29;20201;-51
2021/07/09 05:26:39;;;;;;;1.92;1.83;;;14.60;99.90;;;;;;4917038;29;20622;-50
2021/07/09 05:29:07;;;;;;;2.17;2.00;;;14.60;99.90;;;;;;4917269;29;20255;-47
2021/07/09 05:31:35;;;;;;;2.25;2.05;;;14.60;99.90;;;;;;4917014;29;20208;-45
2021/07/09 05:34:04;;;;;;;2.30;2.10;;;14.60;99.90;;;;;;4917086;29;20217;-50
2021/07/09 05:36:32;;;;;;;2.17;1.88;;;14.60;99.90;;;;;;4916773;29;20882;-51
2021/07/09 05:39:00;;;;;;;2.15;1.95;;;14.60;99.90;;;;;;4917013;29;20307;-49
2021/07/09 05:41:28;;;;;;;2.40;2.10;;;14.60;99.90;;;;;;4916931;29;20299;-46
2021/07/09 05:43:57;;;;;;;2.95;1.60;;;14.70;99.90;;;;;;4916758;29;20217;-46
2021/07/09 05:46:27;;;;;;;1.80;1.70;;;14.70;99.90;;;;;;4916831;29;20213;-47
2021/07/09 05:48:55;;;;;;;2.30;1.88;;;14.70;99.90;;;;;;4916495;29;20252;-50
2021/07/09 05:51:23;;;;;;;2.22;2.03;;;14.70;99.90;;;;;;4916891;29;20221;-51
2021/07/09 05:53:51;;;;;;;1.95;1.85;;;14.80;99.90;;;;;;4916672;29;20698;-48
2021/07/09 05:56:19;;;;;;;1.67;1.58;;;14.80;99.90;;;;;;4916607;29;20764;-47
2021/07/09 05:58:47;;;;;;;2.17;2.03;;;14.80;99.90;;;;;;4916696;29;20364;-48
2021/07/09 06:01:16;;;;;;;1.80;1.70;;;14.90;99.90;;;;;;4916538;29;20255;-49
2021/07/09 06:03:44;;;;;;;1.70;1.60;;;14.90;99.90;;;;;;4916436;29;20194;-47
2021/07/09 06:06:12;;;;;;;1.70;1.60;;;14.90;99.90;;;;;;4916653;29;20292;-46
2021/07/09 06:08:40;;;;;;;2.45;1.73;;;14.90;99.90;;;;;;4916572;29;20217;-49
2021/07/09 06:11:08;;;;;;;1.80;1.67;;;14.90;99.90;;;;;;4916360;29;20213;-48
2021/07/09 06:13:36;;;;;;;1.98;1.88;;;14.90;99.90;;;;;;4916408;29;20212;-47
2021/07/09 06:16:05;;;;;;;2.60;2.03;;;14.90;99.90;;;;;;4916078;29;20232;-47
2021/07/09 06:18:34;;;;;;;2.10;1.83;;;14.80;99.90;;;;;;4916410;29;20209;-47
2021/07/09 06:21:21;;;;;;;2.13;1.95;;;14.90;99.90;;;;;;4916278;29;20613;-51
2021/07/09 06:23:49;;;;;;;2.10;2.00;;;14.80;99.90;;;;;;4916239;29;20256;-50
2021/07/09 06:26:17;;;;;;;1.92;1.83;;;14.80;99.90;;;;;;4916126;29;20209;-47
2021/07/09 06:28:45;;;;;;;1.95;1.63;;;14.90;99.90;;;;;;4916356;29;20309;-48
2021/07/09 06:31:13;;;;;;;2.63;2.42;;;14.80;99.90;;;;;;4916048;29;20303;-50
2021/07/09 06:33:44;;;;;;;1.98;1.88;;;14.80;99.90;;;;;;4916174;29;20217;-47
2021/07/09 06:36:12;;;;;;;2.50;2.30;;;14.90;99.90;;;;;;4915147;29;20322;-46
2021/07/09 06:38:44;;;;;;;2.10;2.00;;;14.90;99.90;;;;;;4915985;29;20223;-52
2021/07/09 06:41:13;;;;;;;2.13;1.95;;;15.00;99.90;;;;;;4915926;29;20235;-48
2021/07/09 06:43:41;;;;;;;2.20;2.03;;;15.00;99.90;;;;;;4915972;29;20677;-48
2021/07/09 06:46:10;;;;;;;2.25;2.05;;;15.00;99.90;;;;;;4916101;29;20622;-50
2021/07/09 06:48:38;;;;;;;2.80;2.60;;;15.10;99.90;;;;;;4915782;29;20335;-50
2021/07/09 06:51:07;;;;;;;4.20;2.45;;;15.10;99.90;;;;;;4915848;29;20307;-49
2021/07/09 06:53:35;;;;;;;3.20;2.90;;;15.10;99.90;;;;;;4915590;29;20311;-49
2021/07/09 06:56:04;;;;;;;3.20;2.92;;;15.10;99.90;;;;;;4915504;29;20275;-48
2021/07/09 06:58:32;;;;;;;2.90;2.50;;;15.20;99.90;;;;;;4915866;29;20217;-48
2021/07/09 07:01:00;;;;;;;2.55;2.35;;;15.20;99.90;;;;;;4915555;29;20213;-51
2021/07/09 07:03:28;;;;;;;2.90;2.70;;;15.30;99.90;;;;;;4915375;29;20308;-47
2021/07/09 07:05:56;;;;;;;2.05;1.95;;;15.40;99.90;;;;;;4915373;29;20304;-48
2021/07/09 07:08:25;;;;;;;2.83;2.63;;;15.50;99.90;;;;;;4915678;29;20304;-51
2021/07/09 07:10:54;;;;;;;2.30;2.20;;;15.60;99.90;;;;;;4915632;29;20436;-51
2021/07/09 07:13:23;;;;;;;2.42;2.10;;;15.70;99.90;;;;;;4915316;29;20307;-51
2021/07/09 07:15:51;;;;;;;2.40;2.20;;;15.70;99.90;;;;;;4915129;29;20712;-48
2021/07/09 07:18:19;;;;;;;2.58;2.40;;;15.90;99.90;;;;;;4915376;29;20216;-52
2021/07/09 07:20:48;;;;;;;2.58;2.38;;;15.90;99.90;;;;;;4915236;29;20216;-49
2021/07/09 07:23:19;;;;;;;2.83;2.63;;;15.90;99.90;;;;;;4915515;29;20270;-47
2021/07/09 07:25:49;;;;;;;3.08;2.85;;;15.80;99.90;;;;;;4915571;29;20284;-47
2021/07/09 07:28:17;;;;;;;6.75;2.50;;;15.80;99.90;;;;;;4915362;29;20213;-48
2021/07/09 07:31:05;;;;;;;2.65;2.45;;;15.70;99.90;;;;;;4915236;29;20236;-49
2021/07/09 07:33:33;;;;;;;2.63;2.42;;;15.70;99.90;;;;;;4915254;29;20213;-52
2021/07/09 07:36:14;;;;;;;2.95;2.75;;;15.70;99.90;;;;;;4915332;29;20228;-49
2021/07/09 07:38:43;;;;;;;2.90;2.70;;;15.70;99.90;;;;;;4915227;29;20216;-46
2021/07/09 07:41:13;;;;;;;4.03;3.03;;;15.70;99.90;;;;;;4915259;29;20263;-49
2021/07/09 07:43:42;;;;;;;2.35;2.20;;;15.80;99.90;;;;;;4915423;29;20213;-46
2021/07/09 07:46:10;;;;;;;2.83;2.22;;;15.80;99.90;;;;;;4915057;29;20685;-50
2021/07/09 07:48:38;;;;;;;3.97;2.40;;;15.70;99.90;;;;;;4917662;29;20292;-46
2021/07/09 07:51:06;;;;;;;2.72;2.50;;;15.80;99.90;;;;;;4918701;29;20217;-51
2021/07/09 07:53:36;;;;;;;2.33;2.13;;;15.80;99.90;;;;;;4918690;29;20240;-46
2021/07/09 07:56:06;;;;;;;2.60;2.40;;;15.80;99.90;;;;;;4918370;29;20257;-48
2021/07/09 07:58:36;;;;;;;3.38;2.05;;;15.80;99.90;;;;;;4918551;29;20220;-47
2021/07/09 08:01:04;;;;;;;2.38;2.20;;;15.80;99.90;;;;;;4918433;29;20213;-49
2021/07/09 08:03:33;;;;;;;2.17;1.98;;;15.90;99.90;;;;;;4918461;29;20221;-52
2021/07/09 08:06:01;;;;;;;2.38;2.17;;;15.90;99.90;;;;;;4918460;29;20296;-47
2021/07/09 08:08:29;;;;;;;3.25;2.25;;;16.00;99.90;;;;;;4918350;29;20312;-48
2021/07/09 08:10:57;;;;;;;2.17;2.08;;;16.10;99.90;;;;;;4918277;29;20219;-47
2021/07/09 08:13:26;;;;;;;2.30;2.10;;;16.20;99.90;;;;;;4918172;29;20213;-50
2021/07/09 08:15:55;;;;;;;2.17;2.00;;;16.30;99.90;;;;;;4918210;29;20315;-50
2021/07/09 08:18:24;;;;;;;1.95;1.80;;;16.50;99.90;;;;;;4918069;29;20224;-53
2021/07/09 08:20:51;;;;;;;4.18;2.10;;;16.60;99.90;;;;;;4918018;29;20664;-49
2021/07/09 08:23:19;;;;;;;1.75;1.65;;;16.70;99.90;;;;;;4917906;29;20212;-48
2021/07/09 08:25:48;;;;;;;2.63;2.42;;;16.80;99.90;;;;;;4918191;29;20217;-50
2021/07/09 08:28:16;;;;;;;1.83;1.70;;;16.90;99.90;;;;;;4918026;29;20287;-48
2021/07/09 08:30:46;;;;;;;2.45;2.25;;;17.00;99.90;;;;;;4917889;29;20307;-47
2021/07/09 08:33:15;;;;;;;2.00;1.90;;;17.00;99.90;;;;;;4917850;29;20276;-47
2021/07/09 08:35:43;;;;;;;3.20;2.20;;;17.00;99.90;;;;;;4917037;29;20232;-50
2021/07/09 08:38:11;;;;;;;2.47;2.28;;;17.10;99.90;;;;;;4917614;29;20272;-46
2021/07/09 08:40:40;;;;;;;2.40;2.20;;;17.10;99.90;;;;;;4918006;29;20303;-49
2021/07/09 08:43:28;;;;;;;2.40;2.17;;;17.20;99.90;;;;;;4917696;29;20310;-47
2021/07/09 08:45:56;;;;;;;1.90;1.80;;;17.40;99.90;;;;;;4917982;29;20613;-47
2021/07/09 08:48:26;;;;;;;2.20;2.00;;;17.50;99.90;;;;;;4917524;29;20287;-50
2021/07/09 08:50:57;;;;;;;2.92;2.38;;;17.50;99.90;;;;;;4917453;29;20213;-50
2021/07/09 08:53:25;;;;;;;2.00;1.85;;;17.50;99.90;;;;;;4917564;29;20628;-48
2021/07/09 08:55:53;;;;;;;2.25;2.05;;;17.60;99.90;;;;;;4917404;29;20672;-49
2021/07/09 08:58:21;;;;;;;2.58;2.30;;;17.60;99.90;;;;;;4916952;29;20239;-48
2021/07/09 09:00:49;;;;;;;1.83;1.73;;;17.60;99.90;;;;;;4917181;29;20300;-51
2021/07/09 09:03:19;;;;;;;2.30;1.85;;;17.60;99.90;;;;;;4917316;29;20546;-51
2021/07/09 09:05:49;;;;;;;3.60;2.00;;;17.50;99.90;;;;;;4917512;29;20212;-47
2021/07/09 09:08:18;;;;;;;1.95;1.85;;;17.40;99.90;;;;;;4917427;29;20761;-49
2021/07/09 09:10:48;;;;;;;2.72;2.53;;;17.30;99.90;;;;;;4917209;29;20244;-51
2021/07/09 09:13:23;;;;;;;1.75;1.65;;;17.20;99.90;;;;;;4917455;29;20333;-48
2021/07/09 09:16:04;;;;;;;2.15;2.05;;;17.10;99.90;;;;;;4917346;29;20237;-48
2021/07/09 09:18:36;;;;;;;1.98;1.88;;;17.20;99.90;;;;;;4917043;29;20246;-49
2021/07/09 09:21:09;;;;;;;2.20;2.10;;;17.10;99.90;;;;;;4917387;29;20213;-46
2021/07/09 09:23:39;;;;;;;2.42;2.22;;;17.20;99.90;;;;;;4916951;29;20219;-47
2021/07/09 09:26:07;;;;;;;2.33;2.13;;;17.20;99.90;;;;;;4917176;29;20295;-47
2021/07/09 09:28:37;;;;;;;2.50;2.30;;;17.20;99.90;;;;;;4916877;29;20213;-46
2021/07/09 09:31:05;;;;;;;2.78;2.58;;;17.20;99.90;;;;;;4916751;29;20296;-47
2021/07/09 09:33:35;;;;;;;2.60;2.40;;;17.30;99.90;;;;;;4916682;29;20640;-46
2021/07/09 09:36:09;;;;;;;2.35;2.22;;;17.30;99.90;;;;;;4916591;29;20572;-46
2021/07/09 09:38:38;;;;;;;2.50;2.30;;;17.40;99.90;;;;;;4916476;29;20231;-46
2021/07/09 09:41:17;;;;;;;3.20;2.58;;;17.30;99.90;;;;;;4916661;29;20216;-50
2021/07/09 09:43:46;;;;;;;3.05;2.85;;;17.30;99.90;;;;;;4916741;29;20213;-50
2021/07/09 09:46:15;;;;;;;3.08;2.58;;;17.30;99.90;;;;;;4916062;29;20291;-51
2021/07/09 09:48:45;;;;;;;3.25;2.60;;;17.40;99.90;;;;;;4916208;29;20292;-47
2021/07/09 09:51:26;;;;;;;2.38;2.20;;;17.50;99.90;;;;;;4916495;29;20635;-48
2021/07/09 09:53:55;;;;;;;3.10;2.90;;;17.50;99.90;;;;;;4916098;29;20586;-51
2021/07/09 09:56:39;;;;;;;3.00;2.80;;;17.60;99.90;;;;;;4916402;29;20209;-50
2021/07/09 09:59:22;;;;;;;3.10;2.90;;;17.60;99.90;;;;;;4916400;29;20240;-48
2021/07/09 10:01:54;;;;;;;2.95;2.75;;;17.60;99.90;;;;;;4916371;29;20676;-49
2021/07/09 10:04:24;;;;;;;3.72;2.97;;;17.60;99.90;;;;;;4916431;29;20217;-52
2021/07/09 10:06:54;;;;;;;3.40;3.10;;;17.50;99.90;;;;;;4916256;29;20307;-49
2021/07/09 10:09:24;;;;;;;3.42;2.80;;;17.40;99.90;;;;;;4916121;29;20217;-47
2021/07/09 10:11:53;;;;;;;4.10;2.88;;;17.40;99.90;;;;;;4916172;29;20217;-47
2021/07/09 10:14:23;;;;;;;3.30;2.70;;;17.30;99.90;;;;;;4915972;29;20688;-47
2021/07/09 10:17:00;;;;;;;3.22;3.03;;;17.30;99.90;;;;;;4916695;29;20218;-48
2021/07/09 10:19:37;;;;;;;3.83;3.40;;;17.20;99.90;;;;;;4915707;29;20231;-50
2021/07/09 10:22:23;;;;;;;4.25;3.92;;;17.20;99.90;;;;;;4915969;29;20216;-47
2021/07/09 10:24:54;;;;;;;4.40;3.33;;;17.10;99.90;;;;;;4915877;29;20680;-48
2021/07/09 10:27:24;;;;;;;4.20;3.90;;;17.10;99.90;;;;;;4915943;29;20240;-53
2021/07/09 10:29:54;;;;;;;4.80;4.40;;;17.10;99.90;;;;;;4915846;29;20299;-49
2021/07/09 10:32:40;;;;;;;4.80;4.40;;;17.10;99.90;;;;;;4915846;29;20224;-49
2021/07/09 10:35:09;;;;;;;5.25;4.85;;;17.20;99.90;;;;;;4916006;29;20312;-48
2021/07/09 10:37:39;;;;;;;5.65;5.03;;;17.10;99.90;;;;;;4915627;29;20672;-48
2021/07/09 10:40:10;;;;;;;5.45;5.03;;;17.10;99.90;;;;;;4915762;29;20208;-51
2021/07/09 10:42:42;;;;;;;5.38;4.97;;;17.00;99.90;;;;;;4915526;29;20713;-47
2021/07/09 10:45:20;;;;;;;6.57;5.95;;;17.10;99.90;;;;;;4915934;29;20295;-53
2021/07/09 10:47:54;;;;;;;5.78;5.25;;;17.20;99.90;;;;;;4915759;29;20243;-49
2021/07/09 10:50:42;;;;;;;6.00;5.45;;;17.20;99.90;;;;;;4915528;29;20616;-50
2021/07/09 10:53:23;;;;;;;5.93;5.28;;;17.20;99.90;;;;;;4915774;29;20284;-50
2021/07/09 10:55:53;;;;;;;5.50;5.10;;;17.20;99.90;;;;;;4915713;29;20216;-46
2021/07/09 10:58:30;;;;;;;6.03;5.53;;;17.20;99.90;;;;;;4915576;29;20244;-51
2021/07/09 11:00:59;;;;;;;5.38;4.97;;;17.20;99.90;;;;;;4915610;29;20246;-46
2021/07/09 11:03:30;;;;;;;5.60;5.00;;;17.30;99.90;;;;;;4915420;29;20421;-50
2021/07/09 11:06:06;;;;;;;5.35;4.88;;;17.40;99.90;;;;;;4915564;29;20274;-49
2021/07/09 11:08:53;;;;;;;5.65;5.25;;;17.60;99.90;;;;;;4915534;29;20554;-50
2021/07/09 11:11:48;;;;;;;5.95;5.22;;;17.90;99.90;;;;;;4915393;29;20216;-50
2021/07/09 11:14:32;;;;;;;6.28;4.45;;;18.10;99.90;;;;;;4915366;29;20212;-48
2021/07/09 11:17:16;;;;;;;5.22;4.75;;;18.30;99.90;;;;;;4915655;29;20653;-46
2021/07/09 11:19:49;;;;;;;4.60;4.20;;;18.50;99.90;;;;;;4915432;29;20247;-49
2021/07/09 11:22:22;;;;;;;4.25;3.90;;;18.60;99.90;;;;;;4916775;29;20221;-49
2021/07/09 11:24:57;;;;;;;5.10;4.70;;;18.70;99.90;;;;;;4919468;29;20398;-49
2021/07/09 11:27:30;;;;;;;4.43;4.07;;;18.70;99.90;;;;;;4919122;29;20212;-47
2021/07/09 11:30:02;;;;;;;3.90;3.60;;;18.70;99.90;;;;;;4919142;29;20822;-46
2021/07/09 11:32:35;;;;;;;4.47;4.07;;;18.90;99.90;;;;;;4918736;29;20311;-46
2021/07/09 11:35:04;;;;;;;3.78;3.47;;;19.10;99.90;;;;;;4918822;29;20208;-50
2021/07/09 11:37:34;;;;;;;4.47;4.18;;;19.40;99.90;;;;;;4918581;29;20295;-47
2021/07/09 11:40:07;;;;;;;5.72;5.22;;;19.70;99.90;;;;;;4918438;29;20224;-48
2021/07/09 11:42:37;;;;;;;4.63;4.32;;;19.80;99.90;;;;;;4918813;29;20235;-46
2021/07/09 11:45:07;;;;;;;4.38;4.03;;;19.90;99.90;;;;;;4918679;29;20279;-47
2021/07/09 11:47:37;;;;;;;5.05;4.65;;;20.00;99.90;;;;;;4918719;29;20648;-55
2021/07/09 11:50:08;;;;;;;4.07;3.80;;;20.10;99.90;;;;;;4918942;29;20283;-49
2021/07/09 11:52:37;;;;;;;5.05;4.65;;;20.20;99.90;;;;;;4919145;29;20308;-53
2021/07/09 11:55:09;;;;;;;4.47;4.07;;;20.30;99.90;;;;;;4918952;29;20673;-48
2021/07/09 11:57:40;;;;;;;7.60;6.80;;;20.40;99.90;;;;;;4918788;29;20217;-49
2021/07/09 12:00:11;;;;;;;4.38;3.97;;;20.50;99.90;;;;;;4918796;29;20216;-53
2021/07/09 12:02:40;;;;;;;4.50;4.10;;;20.50;99.90;;;;;;4918650;29;20634;-54
2021/07/09 12:05:10;;;;;;;4.82;4.38;;;20.50;99.90;;;;;;4918631;29;20213;-53
2021/07/09 12:07:39;;;;;;;4.43;4.03;;;20.50;99.90;;;;;;4918318;29;20209;-56
2021/07/09 12:10:12;;;;;;;4.20;3.88;;;20.60;99.90;;;;;;4918447;29;20261;-52
2021/07/09 12:12:43;;;;;;;5.38;4.88;;;20.70;99.90;;;;;;4917997;29;20213;-53
2021/07/09 12:15:18;;;;;;;5.78;5.25;;;20.60;99.90;;;;;;4918181;29;20244;-55
2021/07/09 12:17:48;;;;;;;4.40;3.97;;;20.70;99.90;;;;;;4917911;29;20216;-57
2021/07/09 12:20:25;;;;;;;4.38;3.90;;;20.90;99.90;;;;;;4918780;29;20509;-58
2021/07/09 12:22:55;;;;;;;4.05;3.85;;;21.10;99.90;;;;;;4918114;29;20300;-54
2021/07/09 12:25:26;;;;;;;4.38;4.07;;;21.10;99.90;;;;;;4918089;29;20221;-58
2021/07/09 12:27:56;;;;;;;5.00;4.53;;;21.20;99.90;;;;;;4918670;29;20280;-55
2021/07/09 12:30:26;;;;;;;4.43;4.03;;;21.20;99.90;;;;;;4917953;29;20270;-57
2021/07/09 12:32:57;;;;;;;4.53;3.88;;;21.00;99.90;;;;;;4917538;29;20612;-54
2021/07/09 12:35:41;;;;;;;3.40;3.10;;;20.90;99.90;;;;;;4917227;29;20231;-58
2021/07/09 12:38:11;;;;;;;3.92;3.63;;;20.90;99.90;;;;;;4918362;29;20216;-62
2021/07/09 12:40:42;;;;;;;4.10;3.50;;;20.90;99.90;;;;;;4918020;29;20216;-58
2021/07/09 12:43:23;;;;;;;4.65;4.18;;;21.00;99.90;;;;;;4917591;29;20684;-57
2021/07/09 12:45:57;;;;;;;5.38;4.18;;;21.00;99.90;;;;;;4917521;29;20262;-54
2021/07/09 12:48:34;;;;;;;4.25;3.95;;;21.10;99.90;;;;;;4917570;29;20240;-57
2021/07/09 12:51:15;;;;;;;4.05;3.75;;;21.10;99.90;;;;;;4917346;29;20208;-54
2021/07/09 12:53:51;;;;;;;3.90;3.58;;;21.10;99.90;;;;;;4917880;29;20315;-58
2021/07/09 12:56:21;;;;;;;4.10;3.80;;;21.20;99.90;;;;;;4917943;29;20699;-58
2021/07/09 12:58:50;;;;;;;4.05;3.75;;;21.30;99.90;;;;;;4917424;29;20232;-56
2021/07/09 13:01:18;;;;;;;3.78;3.47;;;21.40;99.90;;;;;;4917553;29;20220;-55
2021/07/09 13:03:46;;;;;;;3.80;3.55;;;21.30;99.90;;;;;;4917128;29;20213;-56